Time;durP1;ratioP1;P1;durP2;ratioP2;P2;SDS_P1;SDS_P2;PMS_P1;PMS_P2;Temp;Humidity;BMP_temperature;BMP_pressure;BME280_temperature;BME280_humidity;BME280_pressure;Samples;Min_cycle;Max_cycle;Signal;HPM_P1;HPM_P2
2022/07/26 00:01:07;;;;;;;2.20;1.93;;;23.10;99.90;;;;;;5073305;28;20651;-68
2022/07/26 00:03:33;;;;;;;5.37;1.67;;;23.10;99.90;;;;;;5071384;28;21195;-68
2022/07/26 00:06:00;;;;;;;4.33;2.00;;;23.10;99.90;;;;;;5072597;28;20695;-68
2022/07/26 00:08:26;;;;;;;4.70;2.00;;;23.10;99.90;;;;;;5072866;28;20632;-68
2022/07/26 00:10:52;;;;;;;1.60;1.50;;;23.10;99.90;;;;;;5072819;28;20643;-68
2022/07/26 00:13:20;;;;;;;2.00;1.60;;;23.10;99.90;;;;;;5072748;28;20571;-68
2022/07/26 00:15:48;;;;;;;3.50;2.10;;;23.00;99.90;;;;;;5071109;28;20962;-68
2022/07/26 00:18:15;;;;;;;3.30;1.53;;;23.00;99.90;;;;;;5072852;28;20629;-68
2022/07/26 00:20:42;;;;;;;6.00;1.90;;;23.00;99.90;;;;;;5072736;28;20579;-68
2022/07/26 00:23:08;;;;;;;1.60;1.50;;;22.90;99.90;;;;;;5072450;28;21204;-68
2022/07/26 00:25:35;;;;;;;5.13;2.43;;;22.90;99.90;;;;;;5070879;28;20650;-68
2022/07/26 00:28:02;;;;;;;2.50;2.00;;;22.80;99.90;;;;;;5072912;28;20634;-68
2022/07/26 00:30:29;;;;;;;2.53;2.33;;;22.70;99.90;;;;;;5072526;28;20615;-68
2022/07/26 00:32:55;;;;;;;4.60;1.80;;;22.60;99.90;;;;;;5072548;28;20579;-68
2022/07/26 00:35:22;;;;;;;3.60;1.80;;;22.40;99.90;;;;;;5072437;28;20625;-68
2022/07/26 00:37:48;;;;;;;2.37;1.93;;;22.40;99.90;;;;;;5072528;28;20586;-68
2022/07/26 00:40:15;;;;;;;2.30;1.53;;;22.30;99.90;;;;;;5072420;28;20712;-68
2022/07/26 00:42:42;;;;;;;1.63;1.50;;;22.30;99.90;;;;;;5072345;28;20641;-68
2022/07/26 00:45:10;;;;;;;9.13;1.50;;;22.40;99.90;;;;;;5072084;28;20609;-68
2022/07/26 00:47:36;;;;;;;5.43;1.70;;;22.40;99.90;;;;;;5072422;28;20582;-68
2022/07/26 00:50:05;;;;;;;1.63;1.53;;;22.30;99.90;;;;;;5072109;28;21129;-68
2022/07/26 00:52:31;;;;;;;3.00;1.80;;;22.30;99.90;;;;;;5072352;28;20614;-68
2022/07/26 00:54:58;;;;;;;2.40;2.07;;;22.20;99.90;;;;;;5072252;28;21017;-68
2022/07/26 00:57:24;;;;;;;3.73;2.40;;;22.10;99.90;;;;;;5072110;28;20602;-68
2022/07/26 00:59:51;;;;;;;2.90;2.30;;;22.20;99.90;;;;;;5071875;28;20621;-68
2022/07/26 01:02:18;;;;;;;3.47;1.90;;;22.10;99.90;;;;;;5072217;28;20632;-70
2022/07/26 01:04:44;;;;;;;2.20;2.03;;;22.20;99.90;;;;;;5072089;28;20641;-70
2022/07/26 01:07:12;;;;;;;6.03;1.87;;;22.20;99.90;;;;;;5073371;28;20574;-70
2022/07/26 01:09:39;;;;;;;2.03;1.77;;;22.20;99.90;;;;;;5075838;28;20610;-70
2022/07/26 01:12:06;;;;;;;2.07;1.80;;;22.20;99.90;;;;;;5075857;28;20581;-70
2022/07/26 01:14:32;;;;;;;1.23;1.13;;;22.20;99.90;;;;;;5075979;28;20655;-70
2022/07/26 01:16:59;;;;;;;2.63;1.37;;;22.10;99.90;;;;;;5075410;28;20612;-70
2022/07/26 01:19:25;;;;;;;3.33;1.93;;;22.10;99.90;;;;;;5075326;28;20583;-70
2022/07/26 01:21:52;;;;;;;2.03;1.87;;;22.20;99.90;;;;;;5075514;28;20578;-70
2022/07/26 01:24:18;;;;;;;1.47;1.37;;;22.10;99.90;;;;;;5073778;28;20738;-70
2022/07/26 01:26:45;;;;;;;2.40;1.40;;;22.10;99.90;;;;;;5075249;28;20624;-70
2022/07/26 01:29:11;;;;;;;1.67;1.57;;;22.10;99.90;;;;;;5075212;28;21092;-70
2022/07/26 01:31:38;;;;;;;2.13;1.37;;;22.10;99.90;;;;;;5075480;28;20631;-70
2022/07/26 01:34:04;;;;;;;1.50;1.40;;;22.10;99.90;;;;;;5075372;28;20621;-70
2022/07/26 01:36:31;;;;;;;1.50;1.40;;;22.00;99.90;;;;;;5075390;28;20623;-70
2022/07/26 01:38:57;;;;;;;3.10;1.20;;;22.00;99.90;;;;;;5075002;28;21068;-70
2022/07/26 01:41:24;;;;;;;1.60;1.37;;;22.00;99.90;;;;;;5075115;28;21003;-70
2022/07/26 01:43:50;;;;;;;1.30;1.20;;;22.00;99.90;;;;;;5074875;28;20633;-71
2022/07/26 01:46:17;;;;;;;5.33;1.27;;;22.00;99.90;;;;;;5074856;28;20987;-70
2022/07/26 01:48:43;;;;;;;1.83;1.47;;;21.90;99.90;;;;;;5074755;28;20625;-70
2022/07/26 01:51:09;;;;;;;1.40;1.23;;;21.90;99.90;;;;;;5075105;28;20575;-70
2022/07/26 01:53:36;;;;;;;5.43;1.00;;;21.90;99.90;;;;;;5073748;28;20622;-70
2022/07/26 01:56:03;;;;;;;4.97;1.47;;;21.80;99.90;;;;;;5074578;28;20622;-70
2022/07/26 01:58:29;;;;;;;1.57;1.20;;;21.70;99.90;;;;;;5074765;28;21017;-70
2022/07/26 02:00:56;;;;;;;1.57;1.47;;;21.70;99.90;;;;;;5075389;28;20618;-70
2022/07/26 02:03:22;;;;;;;5.07;1.40;;;21.50;99.90;;;;;;5073747;28;20630;-71
2022/07/26 02:05:48;;;;;;;1.50;1.40;;;21.40;99.90;;;;;;5074579;28;20646;-70
2022/07/26 02:08:15;;;;;;;3.33;1.50;;;21.30;99.90;;;;;;5074820;28;20582;-70
2022/07/26 02:10:59;;;;;;;2.23;1.60;;;21.30;99.90;;;;;;5073465;28;20575;-70
2022/07/26 02:13:40;;;;;;;2.90;1.40;;;21.20;99.90;;;;;;5074640;28;20575;-70
2022/07/26 02:16:10;;;;;;;2.20;1.50;;;21.20;99.90;;;;;;5074391;28;20605;-70
2022/07/26 02:18:37;;;;;;;6.07;2.40;;;21.00;99.90;;;;;;5073070;28;20635;-70
2022/07/26 02:21:04;;;;;;;3.90;1.60;;;21.00;99.90;;;;;;5074093;28;20758;-70
2022/07/26 02:23:31;;;;;;;2.37;1.60;;;20.90;99.90;;;;;;5073856;28;21221;-71
2022/07/26 02:25:58;;;;;;;1.50;1.40;;;21.00;99.90;;;;;;5073903;28;20995;-71
2022/07/26 02:28:25;;;;;;;2.80;1.70;;;20.90;99.90;;;;;;5074225;28;20585;-71
2022/07/26 02:30:51;;;;;;;2.40;1.60;;;20.80;99.90;;;;;;5073835;28;20614;-70
2022/07/26 02:33:18;;;;;;;2.93;1.50;;;20.80;99.90;;;;;;5073804;28;21245;-71
2022/07/26 02:35:45;;;;;;;4.50;1.40;;;20.70;99.90;;;;;;5073749;28;20652;-71
2022/07/26 02:38:14;;;;;;;3.40;1.87;;;20.70;99.90;;;;;;5074060;28;20639;-71
2022/07/26 02:40:41;;;;;;;4.00;1.77;;;20.80;99.90;;;;;;5073399;28;20633;-71
2022/07/26 02:43:09;;;;;;;1.70;1.50;;;20.60;99.90;;;;;;5073595;28;20630;-70
2022/07/26 02:45:35;;;;;;;6.73;1.63;;;20.60;99.90;;;;;;5073542;28;20648;-71
2022/07/26 02:48:02;;;;;;;3.87;2.00;;;20.50;99.90;;;;;;5073747;28;20949;-71
2022/07/26 02:50:28;;;;;;;1.87;1.60;;;20.50;99.90;;;;;;5073590;28;20671;-71
2022/07/26 02:52:55;;;;;;;1.63;1.53;;;20.50;99.90;;;;;;5073759;28;20631;-71
2022/07/26 02:55:24;;;;;;;1.60;1.50;;;20.30;99.90;;;;;;5073606;28;20583;-70
2022/07/26 02:57:51;;;;;;;1.67;1.30;;;20.40;99.90;;;;;;5073376;28;20988;-70
2022/07/26 03:00:22;;;;;;;2.50;1.80;;;20.50;99.90;;;;;;5073736;28;20570;-70
2022/07/26 03:02:50;;;;;;;2.07;1.40;;;20.50;99.90;;;;;;5073336;28;20711;-70
2022/07/26 03:05:17;;;;;;;1.93;1.80;;;20.50;99.90;;;;;;5073071;28;20662;-70
2022/07/26 03:07:43;;;;;;;2.10;1.63;;;20.50;99.90;;;;;;5073187;28;20614;-70
2022/07/26 03:10:10;;;;;;;3.23;1.50;;;20.50;99.90;;;;;;5073620;28;20663;-70
2022/07/26 03:12:36;;;;;;;3.43;1.60;;;20.50;99.90;;;;;;5073525;28;20575;-70
2022/07/26 03:15:04;;;;;;;1.97;1.80;;;20.50;99.90;;;;;;5073385;28;20639;-70
2022/07/26 03:17:31;;;;;;;4.30;1.73;;;20.40;99.90;;;;;;5072971;28;20625;-70
2022/07/26 03:19:57;;;;;;;1.50;1.40;;;20.40;99.90;;;;;;5073376;28;21115;-70
2022/07/26 03:22:24;;;;;;;3.17;1.53;;;20.40;99.90;;;;;;5073104;28;20567;-70
2022/07/26 03:24:50;;;;;;;3.10;1.53;;;20.30;99.90;;;;;;5073183;28;20670;-70
2022/07/26 03:27:17;;;;;;;1.60;1.47;;;20.30;99.90;;;;;;5073382;28;20566;-70
2022/07/26 03:29:43;;;;;;;4.63;2.13;;;20.30;99.90;;;;;;5073114;28;20571;-70
2022/07/26 03:32:10;;;;;;;2.13;1.97;;;20.20;99.90;;;;;;5073149;28;20660;-70
2022/07/26 03:34:36;;;;;;;1.70;1.60;;;20.20;99.90;;;;;;5072949;28;20994;-70
2022/07/26 03:37:03;;;;;;;2.23;1.90;;;20.20;99.90;;;;;;5073162;28;20578;-70
2022/07/26 03:39:29;;;;;;;2.67;1.87;;;20.10;99.90;;;;;;5073080;28;20639;-70
2022/07/26 03:41:56;;;;;;;1.90;1.80;;;20.00;99.90;;;;;;5073160;28;20570;-70
2022/07/26 03:44:22;;;;;;;2.90;1.77;;;19.90;99.90;;;;;;5072893;28;20668;-70
2022/07/26 03:46:49;;;;;;;3.47;1.57;;;19.90;99.90;;;;;;5073063;28;20575;-70
2022/07/26 03:49:15;;;;;;;4.40;2.07;;;20.00;99.90;;;;;;5072910;28;20622;-70
2022/07/26 03:51:41;;;;;;;1.67;1.57;;;20.00;99.90;;;;;;5071663;28;20618;-70
2022/07/26 03:54:08;;;;;;;3.90;2.17;;;19.90;99.90;;;;;;5073136;28;20614;-71
2022/07/26 03:56:35;;;;;;;4.73;2.37;;;19.90;99.90;;;;;;5071391;28;20629;-71
2022/07/26 03:59:05;;;;;;;2.13;1.73;;;19.90;99.90;;;;;;5072555;28;20583;-71
2022/07/26 04:01:33;;;;;;;6.50;2.07;;;19.90;99.90;;;;;;5073056;28;20578;-69
2022/07/26 04:04:00;;;;;;;4.93;2.17;;;19.80;99.90;;;;;;5072548;28;20654;-70
2022/07/26 04:06:27;;;;;;;8.27;2.13;;;19.80;99.90;;;;;;5072528;28;20573;-70
2022/07/26 04:08:54;;;;;;;2.80;1.80;;;19.80;99.90;;;;;;5072550;28;20579;-70
2022/07/26 04:11:20;;;;;;;3.37;1.93;;;19.80;99.90;;;;;;5072813;28;20614;-70
2022/07/26 04:13:47;;;;;;;3.30;1.77;;;19.80;99.90;;;;;;5072822;28;20660;-70
2022/07/26 04:16:13;;;;;;;5.07;2.10;;;19.80;99.90;;;;;;5072721;28;20928;-70
2022/07/26 04:18:41;;;;;;;3.23;1.63;;;19.80;99.90;;;;;;5072611;28;20626;-70
2022/07/26 04:21:07;;;;;;;5.50;2.40;;;19.70;99.90;;;;;;5072601;28;20668;-70
2022/07/26 04:23:34;;;;;;;2.80;1.70;;;19.80;99.90;;;;;;5072528;28;20690;-70
2022/07/26 04:26:00;;;;;;;2.20;2.00;;;19.60;99.90;;;;;;5072155;28;21137;-70
2022/07/26 04:28:27;;;;;;;3.33;1.93;;;19.60;99.90;;;;;;5072206;28;21097;-70
2022/07/26 04:30:58;;;;;;;2.30;1.93;;;19.50;99.90;;;;;;5072543;28;20626;-70
2022/07/26 04:33:24;;;;;;;2.27;1.77;;;19.40;99.90;;;;;;5072311;28;20575;-70
2022/07/26 04:35:52;;;;;;;2.40;2.20;;;19.30;99.90;;;;;;5072364;28;20684;-70
2022/07/26 04:38:18;;;;;;;6.50;2.23;;;19.10;99.90;;;;;;5072168;28;20988;-70
2022/07/26 04:40:45;;;;;;;3.10;2.20;;;19.10;99.90;;;;;;5072241;28;20636;-70
2022/07/26 04:43:11;;;;;;;4.77;2.23;;;19.20;99.90;;;;;;5075177;28;20670;-70
2022/07/26 04:45:38;;;;;;;3.37;1.93;;;19.30;99.90;;;;;;5076028;28;20626;-70
2022/07/26 04:48:05;;;;;;;2.53;1.93;;;19.50;99.90;;;;;;5076353;28;20617;-70
2022/07/26 04:50:31;;;;;;;3.20;2.47;;;19.30;99.90;;;;;;5076167;28;20638;-70
2022/07/26 04:52:58;;;;;;;11.07;2.00;;;19.40;99.90;;;;;;5075774;28;20680;-70
2022/07/26 04:55:24;;;;;;;3.20;2.37;;;19.30;99.90;;;;;;5076295;28;20571;-70
2022/07/26 04:57:51;;;;;;;5.60;1.60;;;19.20;99.90;;;;;;5075816;28;20635;-71
2022/07/26 05:00:22;;;;;;;3.80;1.97;;;19.20;99.90;;;;;;5074977;28;20582;-71
2022/07/26 05:02:50;;;;;;;2.07;1.50;;;19.20;99.90;;;;;;5075812;28;20618;-71
2022/07/26 05:05:17;;;;;;;3.23;1.73;;;19.30;99.90;;;;;;5075673;28;20654;-71
2022/07/26 05:07:45;;;;;;;2.53;1.83;;;19.20;99.90;;;;;;5075949;28;20632;-71
2022/07/26 05:10:12;;;;;;;9.40;2.37;;;19.40;99.90;;;;;;5076175;28;20631;-71
2022/07/26 05:12:39;;;;;;;3.63;2.30;;;19.40;99.90;;;;;;5075608;28;20628;-71
2022/07/26 05:15:07;;;;;;;5.07;2.23;;;19.50;99.90;;;;;;5075557;28;20918;-72
2022/07/26 05:17:36;;;;;;;3.10;2.40;;;19.50;99.90;;;;;;5076052;28;20567;-71
2022/07/26 05:20:07;;;;;;;6.07;1.70;;;19.50;99.90;;;;;;5075958;28;20639;-71
2022/07/26 05:22:35;;;;;;;5.77;2.03;;;19.40;99.90;;;;;;5075884;28;20707;-71
2022/07/26 05:25:03;;;;;;;4.93;1.77;;;19.40;99.90;;;;;;5074029;28;20727;-71
2022/07/26 05:27:30;;;;;;;3.63;2.13;;;19.50;99.90;;;;;;5075355;28;20648;-71
2022/07/26 05:29:56;;;;;;;3.37;1.50;;;19.50;99.90;;;;;;5075415;28;21176;-71
2022/07/26 05:32:23;;;;;;;5.60;1.60;;;19.40;99.90;;;;;;5075246;28;21010;-71
2022/07/26 05:34:49;;;;;;;3.63;2.50;;;19.30;99.90;;;;;;5075504;28;20642;-71
2022/07/26 05:37:16;;;;;;;5.30;4.00;;;19.20;99.90;;;;;;5074200;28;20704;-71
2022/07/26 05:39:43;;;;;;;8.53;2.80;;;19.10;99.90;;;;;;5074121;28;21017;-71
2022/07/26 05:42:09;;;;;;;4.47;3.00;;;19.00;99.90;;;;;;5075471;28;20648;-71
2022/07/26 05:44:35;;;;;;;13.93;3.07;;;19.00;99.90;;;;;;5075287;28;20645;-71
2022/07/26 05:47:02;;;;;;;5.67;2.37;;;19.00;99.90;;;;;;5075093;28;20582;-71
2022/07/26 05:49:29;;;;;;;5.43;2.20;;;19.10;99.90;;;;;;5075114;28;20615;-71
2022/07/26 05:51:55;;;;;;;2.40;2.20;;;19.30;99.90;;;;;;5075369;28;20583;-71
2022/07/26 05:54:22;;;;;;;3.63;2.00;;;19.40;99.90;;;;;;5074445;28;20800;-73
2022/07/26 05:56:48;;;;;;;5.33;2.80;;;19.60;99.90;;;;;;5075091;28;20208;-73
2022/07/26 05:59:15;;;;;;;2.60;2.30;;;19.90;99.90;;;;;;5075261;28;20575;-73
2022/07/26 06:01:41;;;;;;;5.60;2.00;;;20.10;99.90;;;;;;5074757;28;20617;-74
2022/07/26 06:04:09;;;;;;;4.17;2.17;;;20.20;99.90;;;;;;5074405;28;20666;-73
2022/07/26 06:06:35;;;;;;;4.17;1.83;;;20.40;99.90;;;;;;5073608;28;20575;-74
2022/07/26 06:09:02;;;;;;;5.07;2.30;;;20.40;99.90;;;;;;5074907;28;20578;-74
2022/07/26 06:11:29;;;;;;;2.13;1.70;;;20.60;99.90;;;;;;5074573;28;21120;-74
2022/07/26 06:13:55;;;;;;;7.17;2.30;;;20.70;99.90;;;;;;5074922;28;20578;-74
2022/07/26 06:16:22;;;;;;;2.30;1.63;;;20.60;99.90;;;;;;5074407;28;20961;-74
2022/07/26 06:18:48;;;;;;;5.93;2.40;;;20.70;99.90;;;;;;5073610;28;20617;-74
2022/07/26 06:21:14;;;;;;;4.70;1.90;;;20.60;99.90;;;;;;5074441;28;20582;-72
2022/07/26 06:23:41;;;;;;;2.27;1.80;;;20.50;99.90;;;;;;5074780;28;20982;-74
2022/07/26 06:26:08;;;;;;;8.03;2.10;;;20.60;99.90;;;;;;5074889;28;20574;-72
2022/07/26 06:28:36;;;;;;;3.20;1.87;;;20.70;99.90;;;;;;5074672;28;20594;-69
2022/07/26 06:31:02;;;;;;;3.13;1.57;;;20.70;99.90;;;;;;5074310;28;21026;-73
2022/07/26 06:33:29;;;;;;;2.73;2.07;;;20.90;99.90;;;;;;5074294;28;20575;-72
2022/07/26 06:35:55;;;;;;;1.60;1.50;;;21.00;99.90;;;;;;5074516;28;20636;-75
2022/07/26 06:38:22;;;;;;;2.03;1.93;;;21.00;99.90;;;;;;5074351;28;20575;-72
2022/07/26 06:40:48;;;;;;;3.80;1.57;;;21.20;99.90;;;;;;5074889;28;20578;-72
2022/07/26 06:43:15;;;;;;;2.93;1.80;;;21.30;99.90;;;;;;5074177;28;20680;-74
2022/07/26 06:45:41;;;;;;;1.97;1.83;;;21.30;99.90;;;;;;5074131;28;20590;-73
2022/07/26 06:48:08;;;;;;;2.80;1.53;;;21.10;99.90;;;;;;5073872;28;20583;-73
2022/07/26 06:50:34;;;;;;;3.90;2.00;;;21.20;99.90;;;;;;5074098;28;20566;-73
2022/07/26 06:53:00;;;;;;;3.07;1.70;;;21.20;99.90;;;;;;5073741;28;21113;-72
2022/07/26 06:55:27;;;;;;;3.97;1.87;;;21.10;99.90;;;;;;5073625;28;20618;-72
2022/07/26 06:57:53;;;;;;;1.73;1.50;;;21.10;99.90;;;;;;5072617;28;20625;-73
2022/07/26 07:00:20;;;;;;;4.17;1.70;;;21.10;99.90;;;;;;5072707;28;20602;-73
2022/07/26 07:02:47;;;;;;;2.13;1.53;;;21.50;99.90;;;;;;5073500;28;20581;-73
2022/07/26 07:05:13;;;;;;;2.67;1.57;;;21.60;99.90;;;;;;5072810;28;20669;-72
2022/07/26 07:07:40;;;;;;;6.73;1.90;;;21.50;99.90;;;;;;5055822;28;20619;-74
2022/07/26 07:10:07;;;;;;;2.80;2.00;;;21.30;99.90;;;;;;5074167;28;20570;-72
2022/07/26 07:12:33;;;;;;;2.27;1.47;;;21.50;99.90;;;;;;5072392;28;20594;-72
2022/07/26 07:15:00;;;;;;;3.33;2.13;;;21.60;99.90;;;;;;5073755;28;20713;-73
2022/07/26 07:17:26;;;;;;;2.50;1.30;;;21.80;99.90;;;;;;5073232;28;20582;-73
2022/07/26 07:19:53;;;;;;;1.93;1.50;;;21.60;99.90;;;;;;5073631;28;20626;-72
2022/07/26 07:22:19;;;;;;;3.73;2.13;;;21.80;99.90;;;;;;5073531;28;20581;-69
2022/07/26 07:24:46;;;;;;;3.07;1.43;;;21.90;99.90;;;;;;5073071;28;20826;-69
2022/07/26 07:27:12;;;;;;;1.97;1.77;;;22.00;99.90;;;;;;5073396;28;20614;-70
2022/07/26 07:29:40;;;;;;;1.90;1.70;;;21.70;99.90;;;;;;5073570;28;20676;-70
2022/07/26 07:32:06;;;;;;;3.13;1.77;;;21.80;99.90;;;;;;5073415;28;20675;-69
2022/07/26 07:34:33;;;;;;;2.30;1.50;;;21.90;99.90;;;;;;5073357;28;20583;-72
2022/07/26 07:36:59;;;;;;;2.70;1.57;;;22.00;99.90;;;;;;5073252;28;20698;-72
2022/07/26 07:39:26;;;;;;;2.17;1.30;;;21.70;99.90;;;;;;5073635;28;20579;-73
2022/07/26 07:41:53;;;;;;;1.73;1.60;;;22.10;99.90;;;;;;5055990;28;20965;-72
2022/07/26 07:44:19;;;;;;;2.60;1.50;;;22.30;99.90;;;;;;5073409;28;20661;-73
2022/07/26 07:46:45;;;;;;;1.67;1.33;;;22.20;99.90;;;;;;5073455;28;20579;-72
2022/07/26 07:49:12;;;;;;;6.83;1.70;;;22.50;99.90;;;;;;5073211;28;20583;-72
2022/07/26 07:51:38;;;;;;;2.97;1.63;;;22.60;99.90;;;;;;5073300;28;20636;-72
2022/07/26 07:54:05;;;;;;;2.70;1.70;;;22.50;99.90;;;;;;5071725;28;20626;-74
2022/07/26 07:56:32;;;;;;;2.07;1.47;;;22.50;99.90;;;;;;5073446;28;20574;-73
2022/07/26 07:58:58;;;;;;;1.67;1.57;;;22.30;99.90;;;;;;5072984;28;20611;-73
2022/07/26 08:01:25;;;;;;;3.10;1.60;;;22.70;99.90;;;;;;5073956;28;20640;-72
2022/07/26 08:03:51;;;;;;;1.60;1.47;;;22.80;99.90;;;;;;5073363;28;20630;-72
2022/07/26 08:06:18;;;;;;;2.60;1.57;;;22.70;99.90;;;;;;5072956;28;20649;-72
2022/07/26 08:08:44;;;;;;;4.30;1.70;;;22.90;99.90;;;;;;5073041;28;20590;-71
2022/07/26 08:11:11;;;;;;;2.10;1.40;;;23.00;99.90;;;;;;5073003;28;20598;-72
2022/07/26 08:13:38;;;;;;;1.53;1.43;;;23.40;99.90;;;;;;5071494;28;20610;-71
2022/07/26 08:16:04;;;;;;;1.90;1.57;;;22.90;99.90;;;;;;5071331;28;20974;-72
2022/07/26 08:18:31;;;;;;;2.03;1.70;;;23.20;99.90;;;;;;5076442;28;20570;-70
2022/07/26 08:20:58;;;;;;;1.70;1.53;;;23.00;99.90;;;;;;5077220;28;20582;-71
2022/07/26 08:23:24;;;;;;;1.93;1.60;;;23.00;99.90;;;;;;5076873;28;21170;-71
2022/07/26 08:25:51;;;;;;;3.10;1.77;;;23.20;99.90;;;;;;5077496;28;20629;-71
2022/07/26 08:28:17;;;;;;;1.57;1.30;;;23.20;99.90;;;;;;5076527;28;20602;-71
2022/07/26 08:30:44;;;;;;;3.10;1.80;;;23.30;99.90;;;;;;5076545;28;20589;-71
2022/07/26 08:33:10;;;;;;;1.83;1.60;;;23.60;99.90;;;;;;5076525;28;21104;-72
2022/07/26 08:35:37;;;;;;;1.50;1.40;;;23.20;99.90;;;;;;5076700;28;20578;-72
2022/07/26 08:38:03;;;;;;;2.00;1.77;;;23.10;99.90;;;;;;5076195;28;21117;-72
2022/07/26 08:40:31;;;;;;;1.67;1.57;;;23.60;99.90;;;;;;5076377;28;21168;-71
2022/07/26 08:42:57;;;;;;;2.33;1.33;;;24.10;99.90;;;;;;5074909;28;20630;-71
2022/07/26 08:45:26;;;;;;;3.57;1.60;;;23.90;99.90;;;;;;5076283;28;20629;-71
2022/07/26 08:47:53;;;;;;;3.00;2.23;;;23.40;99.90;;;;;;5076528;28;20574;-71
2022/07/26 08:50:20;;;;;;;1.40;1.30;;;23.50;99.90;;;;;;5076183;28;20589;-74
2022/07/26 08:52:48;;;;;;;2.20;1.50;;;23.70;99.90;;;;;;5075069;28;20672;-74
2022/07/26 08:55:17;;;;;;;1.93;1.77;;;24.10;99.90;;;;;;5076093;28;20986;-72
2022/07/26 08:57:44;;;;;;;1.83;1.53;;;24.20;99.90;;;;;;5076259;28;20583;-74
2022/07/26 09:00:16;;;;;;;5.43;1.30;;;23.10;99.90;;;;;;5076388;28;20930;-75
2022/07/26 09:02:44;;;;;;;1.87;1.63;;;23.90;99.90;;;;;;5075970;28;20626;-76
2022/07/26 09:05:10;;;;;;;3.40;1.43;;;23.80;99.90;;;;;;5075722;28;21281;-72
2022/07/26 09:07:38;;;;;;;1.87;1.70;;;23.70;99.90;;;;;;5076317;28;20926;-75
2022/07/26 09:10:11;;;;;;;6.30;1.80;;;23.30;99.90;;;;;;5076193;28;20691;-76
2022/07/26 09:12:38;;;;;;;2.50;1.80;;;23.80;99.90;;;;;;5075627;28;20614;-76
2022/07/26 09:15:15;;;;;;;2.20;1.60;;;23.90;99.90;;;;;;5075218;28;20581;-77
2022/07/26 09:17:44;;;;;;;1.53;1.43;;;24.00;99.90;;;;;;5075416;28;21077;-75
2022/07/26 09:20:21;;;;;;;3.40;2.13;;;24.00;99.90;;;;;;5075630;28;20632;-76
2022/07/26 09:23:10;;;;;;;2.13;1.47;;;24.10;99.90;;;;;;5075595;28;20985;-74
2022/07/26 09:25:39;;;;;;;1.50;1.40;;;23.80;99.90;;;;;;5075596;28;21014;-73
2022/07/26 09:28:30;;;;;;;2.90;1.50;;;24.20;99.90;;;;;;5075037;28;20904;-74
2022/07/26 09:30:59;;;;;;;1.90;1.40;;;24.40;99.90;;;;;;5075294;28;20583;-75
2022/07/26 09:33:25;;;;;;;5.83;1.53;;;24.70;99.90;;;;;;5075215;28;20581;-75
2022/07/26 09:36:05;;;;;;;1.93;1.30;;;24.70;99.90;;;;;;5075291;28;20963;-76
2022/07/26 09:38:44;;;;;;;1.80;1.50;;;24.80;99.90;;;;;;5075380;28;20593;-75
2022/07/26 09:41:25;;;;;;;2.20;2.00;;;25.20;99.90;;;;;;5075641;28;20626;-75
2022/07/26 09:43:53;;;;;;;1.43;1.33;;;26.20;99.90;;;;;;5074908;28;21243;-77
2022/07/26 09:46:21;;;;;;;3.70;1.60;;;25.90;99.90;;;;;;5075036;28;21028;-76
2022/07/26 09:48:47;;;;;;;1.80;1.70;;;25.40;99.90;;;;;;5075320;28;20579;-76
2022/07/26 09:51:13;;;;;;;1.90;1.80;;;25.80;99.90;;;;;;5075363;28;20566;-74
2022/07/26 09:53:44;;;;;;;2.93;2.37;;;25.10;99.90;;;;;;5074969;28;20942;-73
2022/07/26 09:56:12;;;;;;;2.00;1.87;;;25.30;99.90;;;;;;5074559;28;20626;-72
2022/07/26 09:58:39;;;;;;;1.70;1.60;;;24.90;99.90;;;;;;5075166;28;20573;-74
2022/07/26 10:01:06;;;;;;;2.20;1.80;;;25.00;99.90;;;;;;5075158;28;20574;-74
2022/07/26 10:03:34;;;;;;;4.77;1.90;;;25.50;99.90;;;;;;5075354;28;21092;-74
2022/07/26 10:06:02;;;;;;;4.67;1.73;;;24.80;99.90;;;;;;5074848;28;20719;-75
2022/07/26 10:08:30;;;;;;;1.70;1.57;;;24.80;99.90;;;;;;5075260;28;20618;-75
2022/07/26 10:11:06;;;;;;;3.43;1.90;;;24.80;99.90;;;;;;5075083;28;20683;-75
2022/07/26 10:13:32;;;;;;;2.43;1.93;;;24.50;99.90;;;;;;5075530;28;21043;-75
2022/07/26 10:15:59;;;;;;;2.50;1.70;;;24.40;99.90;;;;;;5076059;28;20585;-75
2022/07/26 10:18:37;;;;;;;1.87;1.77;;;24.70;99.90;;;;;;5075017;28;20610;-75
2022/07/26 10:21:21;;;;;;;3.63;1.90;;;25.10;99.90;;;;;;5075643;28;20589;-75
2022/07/26 10:23:52;;;;;;;1.90;1.80;;;25.30;99.90;;;;;;5075100;28;21204;-75
2022/07/26 10:26:31;;;;;;;1.60;1.50;;;25.10;99.90;;;;;;5075347;28;20728;-75
2022/07/26 10:29:15;;;;;;;1.87;1.77;;;24.60;99.90;;;;;;5073989;28;20671;-72
2022/07/26 10:31:46;;;;;;;1.87;1.70;;;24.60;99.90;;;;;;5073886;28;21172;-71
2022/07/26 10:34:32;;;;;;;1.73;1.63;;;25.00;99.90;;;;;;5074414;28;20591;-71
2022/07/26 10:37:07;;;;;;;3.17;1.80;;;25.70;99.90;;;;;;5074475;28;20626;-72
2022/07/26 10:39:35;;;;;;;3.20;1.90;;;25.60;99.90;;;;;;5073165;28;20636;-69
2022/07/26 10:42:07;;;;;;;1.90;1.70;;;25.90;99.90;;;;;;5073989;28;20595;-69
2022/07/26 10:44:40;;;;;;;4.63;2.10;;;26.20;99.90;;;;;;5074428;28;20662;-68
2022/07/26 10:47:07;;;;;;;2.47;2.27;;;26.00;99.90;;;;;;5074451;28;20630;-69
2022/07/26 10:49:33;;;;;;;1.60;1.50;;;26.30;99.90;;;;;;5072868;28;20648;-71
2022/07/26 10:52:13;;;;;;;2.70;2.00;;;25.90;99.90;;;;;;5074431;28;20619;-71
2022/07/26 10:54:57;;;;;;;1.73;1.60;;;25.90;99.90;;;;;;5074069;28;21109;-73
2022/07/26 10:57:32;;;;;;;2.10;1.90;;;25.50;99.90;;;;;;5074013;28;20610;-71
2022/07/26 11:00:00;;;;;;;1.60;1.50;;;25.20;99.90;;;;;;5073815;28;20574;-69
2022/07/26 11:02:31;;;;;;;2.00;1.90;;;24.90;99.90;;;;;;5073982;28;20586;-71
2022/07/26 11:05:01;;;;;;;2.40;1.87;;;25.00;99.90;;;;;;5073527;28;20673;-70
2022/07/26 11:07:28;;;;;;;3.27;1.97;;;25.10;99.90;;;;;;5074378;28;20590;-70
2022/07/26 11:09:59;;;;;;;2.53;2.13;;;25.50;99.90;;;;;;5073623;28;20965;-70
2022/07/26 11:12:26;;;;;;;1.87;1.70;;;25.30;99.90;;;;;;5073512;28;20578;-70
2022/07/26 11:14:53;;;;;;;1.70;1.60;;;25.40;99.90;;;;;;5073258;28;20602;-70
2022/07/26 11:17:27;;;;;;;2.07;1.93;;;25.70;99.90;;;;;;5073571;28;20570;-70
2022/07/26 11:19:54;;;;;;;1.80;1.70;;;25.50;99.90;;;;;;5073313;28;21117;-70
2022/07/26 11:22:29;;;;;;;1.93;1.83;;;25.90;99.90;;;;;;5073651;28;20637;-70
2022/07/26 11:24:56;;;;;;;2.10;2.00;;;25.80;99.90;;;;;;5071972;28;21230;-70
2022/07/26 11:27:22;;;;;;;1.83;1.73;;;26.60;99.90;;;;;;5072324;28;20585;-71
2022/07/26 11:29:49;;;;;;;3.20;2.10;;;27.20;99.90;;;;;;5073018;28;21003;-71
2022/07/26 11:32:21;;;;;;;2.50;1.90;;;27.30;99.90;;;;;;5073456;28;20672;-71
2022/07/26 11:35:00;;;;;;;3.30;2.00;;;27.40;99.90;;;;;;5073647;28;20574;-71
2022/07/26 11:37:27;;;;;;;2.10;2.00;;;27.60;99.90;;;;;;5072166;28;21164;-73
2022/07/26 11:39:53;;;;;;;1.83;1.73;;;26.90;99.90;;;;;;5073056;28;20667;-73
2022/07/26 11:42:20;;;;;;;1.90;1.80;;;26.10;99.90;;;;;;5073236;28;20614;-73
2022/07/26 11:44:49;;;;;;;2.33;2.10;;;26.40;99.90;;;;;;5071564;28;20680;-73
2022/07/26 11:47:18;;;;;;;1.80;1.70;;;26.20;99.90;;;;;;5073220;28;20626;-74
2022/07/26 11:49:46;;;;;;;2.60;2.20;;;26.60;99.90;;;;;;5072830;28;20610;-73
2022/07/26 11:52:13;;;;;;;2.10;1.73;;;26.30;99.90;;;;;;5073109;28;20728;-73
2022/07/26 11:54:50;;;;;;;1.90;1.80;;;26.40;99.90;;;;;;5072983;28;20571;-73
2022/07/26 11:57:18;;;;;;;2.03;1.73;;;26.60;99.90;;;;;;5073339;28;21113;-73
2022/07/26 11:59:46;;;;;;;1.90;1.80;;;26.50;99.90;;;;;;5073093;28;20671;-73
2022/07/26 12:02:14;;;;;;;1.90;1.80;;;26.70;99.90;;;;;;5073211;28;20626;-73
2022/07/26 12:04:42;;;;;;;2.17;2.00;;;26.70;99.90;;;;;;5073387;28;20637;-73
2022/07/26 12:07:17;;;;;;;2.70;1.80;;;27.00;99.90;;;;;;5073433;28;20627;-73
2022/07/26 12:09:48;;;;;;;2.20;2.00;;;25.90;99.90;;;;;;5073432;28;20622;-73
2022/07/26 12:12:26;;;;;;;1.73;1.57;;;26.60;99.90;;;;;;5072004;28;20988;-73
2022/07/26 12:15:01;;;;;;;1.77;1.67;;;26.90;99.90;;;;;;5072980;28;20625;-73
2022/07/26 12:17:28;;;;;;;1.87;1.77;;;26.40;99.90;;;;;;5073169;28;20578;-73
2022/07/26 12:19:55;;;;;;;2.27;1.90;;;26.40;99.90;;;;;;5073103;28;20582;-73
2022/07/26 12:22:22;;;;;;;3.13;2.10;;;25.80;99.90;;;;;;5072812;28;20613;-73
2022/07/26 12:25:01;;;;;;;2.70;2.50;;;25.90;99.90;;;;;;5072431;28;20704;-73
2022/07/26 12:27:29;;;;;;;2.37;1.80;;;26.10;99.90;;;;;;5072725;28;20993;-73
2022/07/26 12:30:14;;;;;;;5.13;1.93;;;26.40;99.90;;;;;;5072661;28;20578;-72
2022/07/26 12:32:43;;;;;;;1.80;1.70;;;26.80;99.90;;;;;;5072774;28;20632;-73
2022/07/26 12:35:09;;;;;;;1.90;1.80;;;26.80;99.90;;;;;;5072906;28;20934;-73
2022/07/26 12:37:45;;;;;;;2.27;2.13;;;26.90;99.90;;;;;;5072582;28;20952;-74
2022/07/26 12:40:23;;;;;;;4.33;1.97;;;27.80;99.90;;;;;;5072883;28;20570;-73
2022/07/26 12:42:49;;;;;;;2.93;2.00;;;27.90;99.90;;;;;;5072268;28;20958;-74
2022/07/26 12:45:25;;;;;;;2.67;2.33;;;29.00;99.90;;;;;;5072439;28;20691;-73
2022/07/26 12:47:53;;;;;;;2.20;2.00;;;30.30;99.90;;;;;;5072428;28;20582;-72
2022/07/26 12:50:22;;;;;;;2.30;2.10;;;30.00;99.90;;;;;;5072190;28;20586;-72
2022/07/26 12:52:49;;;;;;;2.30;1.90;;;29.30;99.90;;;;;;5072598;28;20664;-71